Aviation Digital Data Service (ADDS)

Output produced by METARs form (1203 UTC 19 January 2019)
found at http://www.aviationweather.gov/metar/data/
 
Forecast for: HDAM (AMBOULI DJIBOUTI, DJ)
Text: HDAM 191100Z 1912/2012 08010G15KT 9/9 SCT023
Forecast period: 1200 to 1500 UTC 19 January 2019
Forecast type: FROM: standard forecast or significant change
Winds: from the E (80 degrees) at 12 MPH (10 knots; 5.1 m/s)
gusting to 17 MPH (15 knots; 7.7 m/s)
Visibility: 1.00 miles (1.61 km)
Ceiling: at least 12,000 feet AGL
Clouds: scattered clouds at 2300 feet AGL
Weather: no significant weather forecast for this period
Text: BECMG 1915/1918 VRB05KT FEW020
Forecast period: 1500 UTC 19 January 2019 to 0000 UTC 20 January 2019
Forecast type: BECOMING: Conditions expected to become as follows by 1800 UTC 19 January 2019
Winds: variable direction winds at 6 MPH (5 knots; 2.6 m/s)
Visibility: 1.00 miles (1.61 km)
Ceiling: at least 12,000 feet AGL
Clouds: few clouds at 2000 feet AGL
Weather: no significant weather forecast for this period
Text: BECMG 2000/2006 00000KY SCT020
Forecast period: 0000 to 1200 UTC 20 January 2019
Forecast type: BECOMING: Conditions expected to become as follows by 0600 UTC 20 January 2019
Winds: variable direction winds at 6 MPH (5 knots; 2.6 m/s)
Visibility: 1.00 miles (1.61 km)
Ceiling: at least 12,000 feet AGL
Clouds: scattered clouds at 2000 feet AGL
Weather: no significant weather forecast for this period